Time;durP1;ratioP1;P1;durP2;ratioP2;P2;SDS_P1;SDS_P2;PMS_P1;PMS_P2;Temp;Humidity;BMP_temperature;BMP_pressure;BME280_temperature;BME280_humidity;BME280_pressure;Samples;Min_cycle;Max_cycle;Signal;HPM_P1;HPM_P2
2022/06/08 00:01:49;;;;;;;23.13;19.00;;;;;;;;;;767720;180;916464;-67
2022/06/08 00:04:16;;;;;;;24.37;18.17;;;;;;;;;;774869;180;915084;-67
2022/06/08 00:06:40;;;;;;;20.97;16.83;;;;;;;;;;766594;181;916311;-67
2022/06/08 00:09:06;;;;;;;21.63;16.70;;;;;;;;;;771108;180;920901;-67
2022/06/08 00:11:32;;;;;;;24.83;17.70;;;;;;;;;;771142;181;812082;-68
2022/06/08 00:13:58;;;;;;;22.20;17.40;;;;;;;;;;762051;180;918665;-68
2022/06/08 00:16:24;;;;;;;19.00;17.00;;;;;;;;;;768027;180;918344;-67
2022/06/08 00:18:50;;;;;;;21.83;17.83;;;;;;;;;;770761;181;918147;-67
2022/06/08 00:21:15;;;;;;;22.73;18.13;;;;;;;;;;771689;180;919678;-67
2022/06/08 00:23:41;;;;;;;23.30;17.90;;;;;;;;;;764081;180;930584;-67
2022/06/08 00:26:07;;;;;;;24.27;18.67;;;;;;;;;;770235;180;919708;-66
2022/06/08 00:28:33;;;;;;;22.03;17.60;;;;;;;;;;774434;180;918947;-68
2022/06/08 00:30:59;;;;;;;28.03;20.70;;;;;;;;;;768171;181;923834;-68
2022/06/08 00:33:25;;;;;;;26.35;18.83;;;;;;;;;;763891;181;918404;-66
2022/06/08 00:35:51;;;;;;;23.57;18.80;;;;;;;;;;773110;180;918694;-68
2022/06/08 00:38:16;;;;;;;25.77;20.00;;;;;;;;;;768306;180;919492;-67
2022/06/08 00:40:45;;;;;;;27.50;21.50;;;;;;;;;;768927;180;918978;-68
2022/06/08 00:43:11;;;;;;;29.40;22.37;;;;;;;;;;773657;180;917802;-67
2022/06/08 00:45:37;;;;;;;30.07;21.63;;;;;;;;;;770632;180;920580;-68
2022/06/08 00:48:03;;;;;;;30.35;22.13;;;;;;;;;;768626;181;925643;-68
2022/06/08 00:50:29;;;;;;;30.47;21.00;;;;;;;;;;770480;180;919456;-68
2022/06/08 00:52:54;;;;;;;28.10;21.77;;;;;;;;;;775287;179;918803;-68
2022/06/08 00:55:20;;;;;;;35.00;23.90;;;;;;;;;;762557;179;919881;-67
2022/06/08 00:57:46;;;;;;;31.90;22.00;;;;;;;;;;760273;181;919099;-67
2022/06/08 01:00:12;;;;;;;32.27;24.70;;;;;;;;;;770343;180;918229;-69
2022/06/08 01:02:38;;;;;;;31.90;23.53;;;;;;;;;;768252;180;918651;-67
2022/06/08 01:05:10;;;;;;;34.55;25.35;;;;;;;;;;768579;180;919805;-68
2022/06/08 01:07:36;;;;;;;30.60;24.10;;;;;;;;;;769169;180;918625;-66
2022/06/08 01:10:02;;;;;;;33.40;23.47;;;;;;;;;;770047;180;919866;-67
2022/06/08 01:12:27;;;;;;;33.70;23.57;;;;;;;;;;767210;180;917007;-67
2022/06/08 01:14:53;;;;;;;35.87;25.53;;;;;;;;;;765004;180;916209;-67
2022/06/08 01:17:19;;;;;;;31.17;22.97;;;;;;;;;;774675;179;918520;-67
2022/06/08 01:19:45;;;;;;;36.23;25.73;;;;;;;;;;764980;180;916122;-66
2022/06/08 01:22:11;;;;;;;38.37;25.60;;;;;;;;;;770489;180;915593;-67
2022/06/08 01:24:37;;;;;;;31.63;24.30;;;;;;;;;;768504;180;915308;-67
2022/06/08 01:27:03;;;;;;;34.15;23.12;;;;;;;;;;767500;179;916533;-67
2022/06/08 01:29:32;;;;;;;35.70;23.77;;;;;;;;;;769917;180;915400;-67
2022/06/08 01:32:03;;;;;;;39.17;25.57;;;;;;;;;;771385;180;916696;-67
2022/06/08 01:34:35;;;;;;;38.40;25.87;;;;;;;;;;770446;180;914522;-67
2022/06/08 01:37:16;;;;;;;31.30;23.40;;;;;;;;;;765196;181;915991;-67
2022/06/08 01:39:54;;;;;;;34.83;25.00;;;;;;;;;;756104;183;915309;-67
2022/06/08 01:42:25;;;;;;;38.37;25.97;;;;;;;;;;768059;180;980954;-67
2022/06/08 01:45:28;;;;;;;39.00;26.40;;;;;;;;;;769733;180;916076;-67
2022/06/08 01:47:45;;;;;;;34.30;24.07;;;;;;;;;;765336;181;918004;-67
2022/06/08 01:50:11;;;;;;;36.50;24.53;;;;;;;;;;767655;180;1017010;-67
2022/06/08 01:52:40;;;;;;;35.17;23.60;;;;;;;;;;773548;180;911414;-67
2022/06/08 01:55:06;;;;;;;36.03;26.03;;;;;;;;;;774251;179;912066;-67
2022/06/08 01:57:47;;;;;;;32.93;23.53;;;;;;;;;;766315;180;912980;-69
2022/06/08 02:00:15;;;;;;;32.33;23.50;;;;;;;;;;770322;179;919791;-68
2022/06/08 02:02:42;;;;;;;37.33;24.37;;;;;;;;;;761681;181;918580;-67
2022/06/08 02:05:11;;;;;;;38.10;23.95;;;;;;;;;;770497;181;918661;-68
2022/06/08 02:07:40;;;;;;;38.07;25.90;;;;;;;;;;769824;180;921397;-67
2022/06/08 02:10:11;;;;;;;35.33;23.70;;;;;;;;;;768817;181;919399;-68
2022/06/08 02:12:37;;;;;;;28.87;22.87;;;;;;;;;;771087;180;919198;-68
2022/06/08 02:15:04;;;;;;;33.50;22.57;;;;;;;;;;772139;181;918723;-67
2022/06/08 02:17:30;;;;;;;27.80;22.87;;;;;;;;;;774874;180;1021409;-68
2022/06/08 02:20:00;;;;;;;29.70;22.53;;;;;;;;;;766142;180;918128;-68
2022/06/08 02:22:25;;;;;;;32.27;22.40;;;;;;;;;;772119;180;919599;-67
2022/06/08 02:24:53;;;;;;;35.33;23.37;;;;;;;;;;776939;180;917542;-68
2022/06/08 02:27:20;;;;;;;32.40;21.90;;;;;;;;;;765116;180;920744;-68
2022/06/08 02:29:56;;;;;;;28.07;22.33;;;;;;;;;;768891;180;919855;-68
2022/06/08 02:34:53;;;;;;;30.87;21.37;;;;;;;;;;776633;180;918827;-68
2022/06/08 02:37:20;;;;;;;31.80;22.43;;;;;;;;;;769667;180;914721;-67
2022/06/08 02:39:46;;;;;;;29.70;21.83;;;;;;;;;;763601;180;916742;-68
2022/06/08 02:42:15;;;;;;;26.37;21.10;;;;;;;;;;769887;179;913728;-68
2022/06/08 02:44:41;;;;;;;28.97;21.10;;;;;;;;;;768940;180;918197;-68
2022/06/08 02:47:09;;;;;;;28.40;20.80;;;;;;;;;;763517;181;916198;-67
2022/06/08 02:49:35;;;;;;;25.87;20.40;;;;;;;;;;766816;180;920572;-68
2022/06/08 02:52:00;;;;;;;33.20;21.30;;;;;;;;;;773918;180;1019258;-68
2022/06/08 02:54:26;;;;;;;31.53;20.00;;;;;;;;;;766523;180;916456;-68
2022/06/08 02:56:57;;;;;;;33.10;21.10;;;;;;;;;;767480;180;922888;-68
2022/06/08 02:59:23;;;;;;;31.20;22.33;;;;;;;;;;769467;180;915520;-67
2022/06/08 03:01:52;;;;;;;30.17;21.87;;;;;;;;;;768063;181;915023;-67
2022/06/08 03:04:18;;;;;;;34.70;23.10;;;;;;;;;;767274;180;916248;-67
2022/06/08 03:06:45;;;;;;;30.67;22.40;;;;;;;;;;768046;180;919547;-67
2022/06/08 03:09:11;;;;;;;32.67;22.93;;;;;;;;;;773132;180;919382;-67
2022/06/08 03:11:38;;;;;;;31.37;23.73;;;;;;;;;;768593;180;919370;-67
2022/06/08 03:14:03;;;;;;;28.17;21.70;;;;;;;;;;765627;180;922777;-67
2022/06/08 03:16:33;;;;;;;28.53;22.17;;;;;;;;;;770777;180;949216;-67
2022/06/08 03:18:58;;;;;;;31.20;21.90;;;;;;;;;;765679;181;918050;-68
2022/06/08 03:21:25;;;;;;;33.43;23.57;;;;;;;;;;762857;181;917923;-68
2022/06/08 03:23:50;;;;;;;29.50;20.90;;;;;;;;;;768305;181;918890;-68
2022/06/08 03:26:16;;;;;;;31.35;21.33;;;;;;;;;;774976;178;921898;-68
2022/06/08 03:28:42;;;;;;;27.20;20.07;;;;;;;;;;772930;180;1024004;-68
2022/06/08 03:31:08;;;;;;;29.03;19.47;;;;;;;;;;772458;180;921883;-68
2022/06/08 03:33:34;;;;;;;30.83;21.40;;;;;;;;;;773427;180;918170;-68
2022/06/08 03:35:59;;;;;;;30.03;20.97;;;;;;;;;;767733;180;917809;-68
2022/06/08 03:38:25;;;;;;;31.40;20.87;;;;;;;;;;770577;180;919500;-69
2022/06/08 03:40:51;;;;;;;38.45;22.13;;;;;;;;;;770888;180;919452;-69
2022/06/08 03:43:17;;;;;;;27.00;20.40;;;;;;;;;;770621;181;918542;-68
2022/06/08 03:45:44;;;;;;;24.27;19.87;;;;;;;;;;769239;180;926519;-66
2022/06/08 03:48:09;;;;;;;30.10;21.37;;;;;;;;;;769528;180;919278;-66
2022/06/08 03:50:35;;;;;;;28.30;19.07;;;;;;;;;;776316;180;919533;-66
2022/06/08 03:53:02;;;;;;;28.07;19.93;;;;;;;;;;768191;180;918742;-66
2022/06/08 03:55:28;;;;;;;29.73;21.03;;;;;;;;;;772726;179;919358;-67
2022/06/08 03:57:54;;;;;;;30.50;19.97;;;;;;;;;;776025;179;917671;-65
2022/06/08 04:00:20;;;;;;;31.47;21.70;;;;;;;;;;768339;180;920140;-65
2022/06/08 04:02:45;;;;;;;32.88;22.15;;;;;;;;;;766914;180;919694;-66
2022/06/08 04:05:12;;;;;;;34.60;22.93;;;;;;;;;;769302;180;918837;-64
2022/06/08 04:07:37;;;;;;;32.37;22.57;;;;;;;;;;771026;180;918573;-64
2022/06/08 04:10:03;;;;;;;31.10;20.43;;;;;;;;;;757262;182;921383;-65
2022/06/08 04:12:29;;;;;;;31.90;23.70;;;;;;;;;;774415;180;622536;-66
2022/06/08 04:14:55;;;;;;;31.33;23.10;;;;;;;;;;774612;180;919492;-65
2022/06/08 04:17:21;;;;;;;36.00;24.30;;;;;;;;;;770113;180;919059;-66
2022/06/08 04:19:48;;;;;;;33.80;25.10;;;;;;;;;;772772;180;918885;-65
2022/06/08 04:22:15;;;;;;;33.40;25.20;;;;;;;;;;773900;181;627082;-66
2022/06/08 04:24:40;;;;;;;32.20;23.47;;;;;;;;;;766582;180;919197;-66
2022/06/08 04:27:06;;;;;;;39.10;26.17;;;;;;;;;;770540;180;922681;-66
2022/06/08 04:29:32;;;;;;;37.22;27.00;;;;;;;;;;769427;180;919131;-66
2022/06/08 04:31:58;;;;;;;34.93;24.23;;;;;;;;;;769644;181;919452;-66
2022/06/08 04:34:24;;;;;;;31.83;23.75;;;;;;;;;;761122;180;917302;-66
2022/06/08 04:36:49;;;;;;;33.20;23.93;;;;;;;;;;766835;179;918784;-66
2022/06/08 04:39:15;;;;;;;33.03;23.20;;;;;;;;;;780672;179;796548;-66
2022/06/08 04:41:41;;;;;;;35.80;25.27;;;;;;;;;;767736;179;919765;-66
2022/06/08 04:44:07;;;;;;;33.83;23.63;;;;;;;;;;772361;180;919945;-66
2022/06/08 04:46:33;;;;;;;36.33;25.20;;;;;;;;;;775132;179;924047;-66
2022/06/08 04:48:59;;;;;;;39.77;25.10;;;;;;;;;;771747;180;919633;-67
2022/06/08 04:51:24;;;;;;;38.67;24.63;;;;;;;;;;773139;179;920013;-67
2022/06/08 04:53:50;;;;;;;37.87;26.27;;;;;;;;;;773283;179;920222;-67
2022/06/08 04:56:16;;;;;;;38.70;22.70;;;;;;;;;;765848;179;919594;-66
2022/06/08 04:58:42;;;;;;;34.50;22.63;;;;;;;;;;767764;180;919906;-68
2022/06/08 05:01:08;;;;;;;36.07;24.60;;;;;;;;;;768715;180;1020747;-67
2022/06/08 05:03:34;;;;;;;37.93;23.90;;;;;;;;;;775101;180;919707;-67
2022/06/08 05:05:59;;;;;;;36.22;24.67;;;;;;;;;;766622;181;919088;-67
2022/06/08 05:08:25;;;;;;;33.83;23.30;;;;;;;;;;768444;180;917950;-65
2022/06/08 05:10:51;;;;;;;40.47;23.20;;;;;;;;;;774029;180;1021412;-66
2022/06/08 05:13:17;;;;;;;32.07;23.37;;;;;;;;;;772105;180;920590;-66
2022/06/08 05:15:43;;;;;;;35.93;24.30;;;;;;;;;;773235;180;919285;-65
2022/06/08 05:18:09;;;;;;;43.47;24.03;;;;;;;;;;775181;180;918687;-66
2022/06/08 05:20:35;;;;;;;40.40;24.33;;;;;;;;;;763563;180;920409;-65
2022/06/08 05:23:00;;;;;;;33.20;22.27;;;;;;;;;;770428;180;918256;-65
2022/06/08 05:25:35;;;;;;;40.20;26.20;;;;;;;;;;771176;180;924909;-66
2022/06/08 05:28:01;;;;;;;42.23;23.67;;;;;;;;;;775472;179;917744;-67
2022/06/08 05:30:27;;;;;;;33.47;23.43;;;;;;;;;;766960;180;919251;-67
2022/06/08 05:32:52;;;;;;;37.67;25.73;;;;;;;;;;766206;180;918956;-67
2022/06/08 05:35:18;;;;;;;37.43;25.70;;;;;;;;;;771845;180;917881;-68
2022/06/08 05:37:44;;;;;;;36.67;24.87;;;;;;;;;;765124;180;1021235;-67
2022/06/08 05:40:10;;;;;;;35.13;23.10;;;;;;;;;;771615;180;918878;-67
2022/06/08 05:42:36;;;;;;;39.93;26.40;;;;;;;;;;769771;180;1021800;-67
2022/06/08 05:45:02;;;;;;;34.20;23.73;;;;;;;;;;772313;180;918804;-67
2022/06/08 05:47:28;;;;;;;39.70;27.03;;;;;;;;;;767043;179;1020624;-68
2022/06/08 05:49:54;;;;;;;40.00;25.03;;;;;;;;;;774090;179;919823;-68
2022/06/08 05:52:20;;;;;;;36.87;25.20;;;;;;;;;;775093;180;919708;-69
2022/06/08 05:54:46;;;;;;;40.07;25.83;;;;;;;;;;771119;180;918228;-67
2022/06/08 05:57:11;;;;;;;37.00;24.77;;;;;;;;;;771703;180;919516;-67
2022/06/08 05:59:38;;;;;;;37.13;23.87;;;;;;;;;;771053;181;919376;-67
2022/06/08 06:02:04;;;;;;;40.77;26.27;;;;;;;;;;769295;181;921313;-67
2022/06/08 06:04:30;;;;;;;41.40;25.97;;;;;;;;;;775314;179;919268;-67
2022/06/08 06:06:56;;;;;;;41.27;27.33;;;;;;;;;;775241;180;918930;-67
2022/06/08 06:09:22;;;;;;;39.50;24.43;;;;;;;;;;769869;182;919394;-65
2022/06/08 06:11:49;;;;;;;33.40;23.60;;;;;;;;;;772408;180;919007;-65
2022/06/08 06:14:13;;;;;;;39.43;24.90;;;;;;;;;;767460;180;623827;-65
2022/06/08 06:16:39;;;;;;;37.73;23.70;;;;;;;;;;771950;181;636982;-63
2022/06/08 06:19:05;;;;;;;39.23;24.17;;;;;;;;;;774256;180;919861;-62
2022/06/08 06:21:31;;;;;;;36.78;25.67;;;;;;;;;;771360;180;919200;-63
2022/06/08 06:23:57;;;;;;;39.60;24.83;;;;;;;;;;778506;180;919297;-64
2022/06/08 06:26:23;;;;;;;51.70;26.03;;;;;;;;;;774552;181;633151;-64
2022/06/08 06:28:48;;;;;;;41.70;27.13;;;;;;;;;;769150;181;862509;-65
2022/06/08 06:31:17;;;;;;;43.80;25.60;;;;;;;;;;769654;180;918628;-64
2022/06/08 06:33:43;;;;;;;47.00;28.87;;;;;;;;;;766208;182;818419;-63
2022/06/08 06:36:09;;;;;;;42.63;27.10;;;;;;;;;;766068;179;922885;-63
2022/06/08 06:38:35;;;;;;;42.25;26.15;;;;;;;;;;765133;181;920613;-64
2022/06/08 06:41:00;;;;;;;45.07;27.67;;;;;;;;;;771613;180;917128;-62
2022/06/08 06:43:26;;;;;;;42.53;24.77;;;;;;;;;;768376;180;915190;-62
2022/06/08 06:45:52;;;;;;;37.40;25.27;;;;;;;;;;766890;180;915918;-64
2022/06/08 06:48:18;;;;;;;41.30;25.83;;;;;;;;;;777036;180;916709;-63
2022/06/08 06:50:44;;;;;;;43.83;27.57;;;;;;;;;;766692;180;918884;-63
2022/06/08 06:53:10;;;;;;;38.17;24.77;;;;;;;;;;767363;180;919856;-63
2022/06/08 06:55:36;;;;;;;39.23;26.40;;;;;;;;;;767518;181;930050;-63
2022/06/08 06:58:01;;;;;;;39.03;24.73;;;;;;;;;;772507;180;919376;-62
2022/06/08 07:00:27;;;;;;;42.73;26.20;;;;;;;;;;768267;180;944396;-62
2022/06/08 07:02:53;;;;;;;38.50;25.05;;;;;;;;;;772782;179;921907;-62
2022/06/08 07:05:19;;;;;;;40.17;25.30;;;;;;;;;;777833;180;919074;-63
2022/06/08 07:07:45;;;;;;;35.07;24.70;;;;;;;;;;772813;180;918797;-62
2022/06/08 07:10:11;;;;;;;36.97;25.10;;;;;;;;;;768681;179;920811;-62
2022/06/08 07:12:37;;;;;;;37.08;24.77;;;;;;;;;;772654;179;919395;-61
2022/06/08 07:15:03;;;;;;;44.63;26.30;;;;;;;;;;774306;180;917080;-62
2022/06/08 07:17:28;;;;;;;39.40;25.20;;;;;;;;;;774196;180;637204;-63
2022/06/08 07:19:54;;;;;;;47.63;26.73;;;;;;;;;;774109;180;918091;-62
2022/06/08 07:22:20;;;;;;;46.83;27.80;;;;;;;;;;773797;180;632121;-61
2022/06/08 07:24:46;;;;;;;42.10;25.13;;;;;;;;;;774388;180;918458;-61
2022/06/08 07:27:12;;;;;;;38.83;25.15;;;;;;;;;;764653;180;918757;-61
2022/06/08 07:29:38;;;;;;;38.70;25.70;;;;;;;;;;772569;180;919733;-60
2022/06/08 07:32:04;;;;;;;40.13;25.83;;;;;;;;;;764637;180;919447;-61
2022/06/08 07:34:30;;;;;;;41.60;26.30;;;;;;;;;;766592;180;919679;-60
2022/06/08 07:36:55;;;;;;;46.10;26.10;;;;;;;;;;773105;180;919702;-61
2022/06/08 07:39:21;;;;;;;42.30;27.50;;;;;;;;;;770772;177;919199;-61
2022/06/08 07:41:49;;;;;;;44.65;26.95;;;;;;;;;;769585;180;917140;-61
2022/06/08 07:44:15;;;;;;;32.53;21.75;;;;;;;;;;776213;180;916551;-60
2022/06/08 07:46:39;;;;;;;43.63;24.87;;;;;;;;;;764619;181;915243;-60
2022/06/08 07:51:37;;;;;;;30.03;20.83;;;;;;;;;;770300;180;926245;-61
2022/06/08 07:54:03;;;;;;;28.70;20.33;;;;;;;;;;774631;173;640715;-60
2022/06/08 07:56:29;;;;;;;34.30;20.40;;;;;;;;;;744423;186;920204;-61
2022/06/08 07:58:55;;;;;;;31.05;21.85;;;;;;;;;;742745;186;920507;-60
2022/06/08 08:01:21;;;;;;;24.90;21.67;;;;;;;;;;742280;186;936004;-60
2022/06/08 08:03:47;;;;;;;33.20;22.27;;;;;;;;;;742045;186;916798;-61
2022/06/08 08:06:13;;;;;;;32.70;20.40;;;;;;;;;;739571;186;920246;-61
2022/06/08 08:08:39;;;;;;;34.10;23.20;;;;;;;;;;738768;185;918689;-61
2022/06/08 08:11:05;;;;;;;30.13;20.57;;;;;;;;;;745859;186;1017869;-61
2022/06/08 08:13:31;;;;;;;30.13;21.03;;;;;;;;;;739871;185;915951;-62
2022/06/08 08:15:56;;;;;;;29.47;20.73;;;;;;;;;;739704;185;920326;-62
2022/06/08 08:18:22;;;;;;;30.53;20.80;;;;;;;;;;745167;185;918544;-62
2022/06/08 08:20:48;;;;;;;29.10;18.80;;;;;;;;;;738446;186;919465;-63
2022/06/08 08:23:14;;;;;;;25.27;18.50;;;;;;;;;;741008;188;919640;-64
2022/06/08 08:25:40;;;;;;;25.60;17.87;;;;;;;;;;743960;185;1021238;-63
2022/06/08 08:28:07;;;;;;;26.90;16.60;;;;;;;;;;737169;186;919204;-63
2022/06/08 08:30:32;;;;;;;21.27;15.27;;;;;;;;;;738156;188;919563;-63
2022/06/08 08:32:57;;;;;;;26.53;17.87;;;;;;;;;;738518;188;1021371;-63
2022/06/08 08:35:24;;;;;;;19.13;15.80;;;;;;;;;;745078;186;918977;-63
2022/06/08 08:37:49;;;;;;;20.67;16.10;;;;;;;;;;739683;186;919528;-65
2022/06/08 08:40:17;;;;;;;17.63;13.40;;;;;;;;;;739004;188;919813;-66
2022/06/08 08:42:43;;;;;;;20.30;14.07;;;;;;;;;;747292;185;624228;-64
2022/06/08 08:45:11;;;;;;;19.30;14.50;;;;;;;;;;743201;186;919214;-64
2022/06/08 08:47:38;;;;;;;17.60;14.23;;;;;;;;;;739430;188;917064;-65
2022/06/08 08:50:04;;;;;;;20.33;13.13;;;;;;;;;;742001;188;920025;-69
2022/06/08 08:52:47;;;;;;;17.57;14.03;;;;;;;;;;742230;188;919453;-65
2022/06/08 08:55:28;;;;;;;19.07;14.83;;;;;;;;;;742219;188;920068;-66
2022/06/08 08:57:54;;;;;;;22.73;17.30;;;;;;;;;;735239;190;867672;-66
2022/06/08 09:00:21;;;;;;;18.83;16.53;;;;;;;;;;740463;188;918793;-66
2022/06/08 09:05:19;;;;;;;29.83;18.80;;;;;;;;;;744171;188;919460;-66
2022/06/08 09:07:45;;;;;;;24.77;18.67;;;;;;;;;;741006;186;919430;-66
2022/06/08 09:10:14;;;;;;;20.80;17.33;;;;;;;;;;736742;186;920165;-66
2022/06/08 09:12:44;;;;;;;25.67;17.77;;;;;;;;;;734706;186;918669;-65
2022/06/08 09:15:06;;;;;;;22.17;17.40;;;;;;;;;;744136;186;819560;-66
2022/06/08 09:17:32;;;;;;;23.80;18.47;;;;;;;;;;737446;186;920972;-65
2022/06/08 09:19:58;;;;;;;27.63;19.63;;;;;;;;;;738115;188;922111;-63
2022/06/08 09:22:24;;;;;;;25.93;17.77;;;;;;;;;;742533;186;921202;-63
2022/06/08 09:24:50;;;;;;;28.57;19.50;;;;;;;;;;738010;185;916860;-63
2022/06/08 09:27:16;;;;;;;24.23;19.13;;;;;;;;;;740462;185;916696;-63
2022/06/08 09:29:50;;;;;;;25.43;18.60;;;;;;;;;;738517;185;916418;-62
2022/06/08 09:32:22;;;;;;;23.57;18.43;;;;;;;;;;741764;189;915989;-62
2022/06/08 09:34:47;;;;;;;22.00;17.27;;;;;;;;;;739961;188;919267;-63
2022/06/08 09:37:13;;;;;;;28.57;20.07;;;;;;;;;;737770;185;919005;-62
2022/06/08 09:39:40;;;;;;;23.27;15.00;;;;;;;;;;738715;188;919993;-63
2022/06/08 09:42:12;;;;;;;19.67;15.93;;;;;;;;;;743415;188;919680;-64
2022/06/08 09:44:37;;;;;;;19.30;16.30;;;;;;;;;;738314;189;919310;-63
2022/06/08 09:52:35;;;;;;;20.80;14.60;;;;;;;;;;735448;188;919495;-65
2022/06/08 09:55:12;;;;;;;17.33;14.27;;;;;;;;;;738364;189;903631;-65
2022/06/08 09:57:38;;;;;;;18.67;14.73;;;;;;;;;;744136;189;892218;-65
2022/06/08 10:00:20;;;;;;;17.80;13.67;;;;;;;;;;737610;189;939229;-65
2022/06/08 10:03:00;;;;;;;18.20;12.70;;;;;;;;;;734741;188;918867;-65
2022/06/08 10:05:39;;;;;;;15.20;12.50;;;;;;;;;;732692;186;919664;-66
2022/06/08 10:08:06;;;;;;;14.23;12.70;;;;;;;;;;734254;186;919339;-66
2022/06/08 10:10:34;;;;;;;16.20;12.30;;;;;;;;;;739142;186;919642;-67
2022/06/08 10:13:00;;;;;;;17.50;13.60;;;;;;;;;;738995;186;816074;-68
2022/06/08 10:15:28;;;;;;;16.23;13.85;;;;;;;;;;742354;187;918277;-66
2022/06/08 10:17:55;;;;;;;16.00;13.57;;;;;;;;;;735814;187;919447;-67
2022/06/08 10:20:20;;;;;;;17.95;14.40;;;;;;;;;;736701;186;1124026;-67
2022/06/08 10:22:46;;;;;;;18.30;15.60;;;;;;;;;;740660;189;920406;-67
2022/06/08 10:25:22;;;;;;;20.07;17.03;;;;;;;;;;736086;186;920394;-68
2022/06/08 10:27:52;;;;;;;21.00;16.03;;;;;;;;;;738566;186;1021686;-67
2022/06/08 10:30:18;;;;;;;25.33;17.50;;;;;;;;;;738823;186;919164;-67
2022/06/08 10:32:45;;;;;;;25.57;17.37;;;;;;;;;;740215;188;919280;-68
2022/06/08 10:35:14;;;;;;;24.47;18.30;;;;;;;;;;742241;187;919424;-67
2022/06/08 10:37:40;;;;;;;25.60;19.40;;;;;;;;;;740499;185;919767;-67
2022/06/08 10:40:06;;;;;;;25.00;17.87;;;;;;;;;;737796;187;919768;-66
2022/06/08 10:45:10;;;;;;;24.60;16.13;;;;;;;;;;739108;186;919999;-66
2022/06/08 10:47:38;;;;;;;20.57;15.37;;;;;;;;;;736966;189;919074;-65
2022/06/08 10:50:14;;;;;;;24.33;18.60;;;;;;;;;;739229;185;919654;-67
2022/06/08 10:52:45;;;;;;;23.13;16.80;;;;;;;;;;738339;188;919744;-65
2022/06/08 10:55:28;;;;;;;24.63;18.77;;;;;;;;;;740142;187;919362;-66
2022/06/08 10:58:00;;;;;;;22.10;16.80;;;;;;;;;;738545;188;920088;-66
2022/06/08 11:00:26;;;;;;;22.47;18.80;;;;;;;;;;740274;188;919358;-67
2022/06/08 11:02:54;;;;;;;21.90;18.57;;;;;;;;;;737066;188;918831;-66
2022/06/08 11:05:20;;;;;;;24.30;17.90;;;;;;;;;;738442;189;918517;-66
2022/06/08 11:07:51;;;;;;;23.73;18.87;;;;;;;;;;743924;186;919137;-67
2022/06/08 11:10:17;;;;;;;22.30;17.50;;;;;;;;;;738469;188;919687;-67
2022/06/08 11:12:46;;;;;;;27.37;22.07;;;;;;;;;;740715;186;918885;-66
2022/06/08 11:15:12;;;;;;;28.77;20.80;;;;;;;;;;737842;186;918837;-68
2022/06/08 11:17:40;;;;;;;28.27;21.00;;;;;;;;;;740150;188;919048;-67
2022/06/08 11:20:11;;;;;;;28.27;20.80;;;;;;;;;;735658;187;1022263;-65
2022/06/08 11:22:37;;;;;;;21.70;16.10;;;;;;;;;;737414;188;920215;-65
2022/06/08 11:25:03;;;;;;;19.83;14.67;;;;;;;;;;742276;186;918527;-68
2022/06/08 11:27:29;;;;;;;18.73;14.30;;;;;;;;;;736662;186;919725;-66
2022/06/08 11:29:56;;;;;;;22.97;13.50;;;;;;;;;;736198;186;919223;-65
2022/06/08 11:32:24;;;;;;;17.10;12.67;;;;;;;;;;737462;186;918956;-65
2022/06/08 11:34:51;;;;;;;14.57;11.97;;;;;;;;;;733618;190;922297;-66
2022/06/08 11:37:18;;;;;;;16.73;12.30;;;;;;;;;;728875;192;919264;-65
2022/06/08 11:39:45;;;;;;;19.87;12.70;;;;;;;;;;709569;195;1009819;-65
2022/06/08 11:42:14;;;;;;;19.87;13.17;;;;;;;;;;726262;193;917760;-65
2022/06/08 11:44:40;;;;;;;19.40;14.27;;;;;;;;;;712923;196;918357;-66
2022/06/08 11:47:06;;;;;;;17.33;13.40;;;;;;;;;;733446;187;919240;-65
2022/06/08 11:49:32;;;;;;;19.62;13.88;;;;;;;;;;739243;187;920565;-65
2022/06/08 11:51:57;;;;;;;18.63;15.00;;;;;;;;;;744327;186;919309;-65
2022/06/08 11:54:25;;;;;;;19.00;14.47;;;;;;;;;;739412;187;918903;-65
2022/06/08 11:57:04;;;;;;;22.73;14.53;;;;;;;;;;739008;185;924588;-66
2022/06/08 11:59:30;;;;;;;17.50;14.60;;;;;;;;;;739509;186;918746;-70
2022/06/08 12:01:56;;;;;;;19.87;15.03;;;;;;;;;;744883;186;921382;-66
2022/06/08 12:04:23;;;;;;;20.20;15.73;;;;;;;;;;740403;188;920091;-66
2022/06/08 12:06:47;;;;;;;29.50;21.00;;;;;;;;;;740596;188;923854;-67
2022/06/08 12:09:14;;;;;;;31.70;21.63;;;;;;;;;;744591;186;922444;-66
2022/06/08 12:11:40;;;;;;;26.73;20.73;;;;;;;;;;727216;189;917605;-69
2022/06/08 12:14:12;;;;;;;25.00;19.40;;;;;;;;;;737581;188;920087;-67
2022/06/08 12:16:37;;;;;;;27.37;20.30;;;;;;;;;;735528;186;920650;-66
2022/06/08 12:19:13;;;;;;;26.67;19.87;;;;;;;;;;744281;186;918237;-65
2022/06/08 12:21:39;;;;;;;29.40;21.17;;;;;;;;;;741860;188;919037;-66
2022/06/08 12:24:06;;;;;;;30.90;24.07;;;;;;;;;;738163;188;1021349;-65
2022/06/08 12:26:35;;;;;;;36.03;25.97;;;;;;;;;;738681;188;917976;-66
2022/06/08 12:29:21;;;;;;;38.07;25.93;;;;;;;;;;745087;186;627011;-67
2022/06/08 12:31:47;;;;;;;30.70;22.80;;;;;;;;;;737520;190;910303;-65
2022/06/08 12:34:19;;;;;;;36.83;27.73;;;;;;;;;;741262;189;835999;-66
2022/06/08 12:36:45;;;;;;;33.10;27.07;;;;;;;;;;738131;186;915255;-67
2022/06/08 12:39:11;;;;;;;38.30;27.63;;;;;;;;;;740437;187;756835;-69
2022/06/08 12:41:52;;;;;;;32.67;25.73;;;;;;;;;;742671;186;883727;-67
2022/06/08 12:44:19;;;;;;;31.67;25.07;;;;;;;;;;742609;189;633992;-66
2022/06/08 12:46:46;;;;;;;28.57;22.93;;;;;;;;;;741801;188;623746;-67
2022/06/08 12:49:13;;;;;;;28.33;22.23;;;;;;;;;;742229;188;625725;-67
2022/06/08 12:51:40;;;;;;;32.57;23.43;;;;;;;;;;742454;186;642262;-66
2022/06/08 12:54:15;;;;;;;28.20;19.90;;;;;;;;;;747214;186;624837;-68
2022/06/08 12:56:40;;;;;;;27.33;20.20;;;;;;;;;;744714;188;629938;-67
2022/06/08 12:59:06;;;;;;;26.10;20.07;;;;;;;;;;746049;186;616940;-68
2022/06/08 13:01:32;;;;;;;25.70;19.70;;;;;;;;;;744286;186;619221;-66
2022/06/08 13:03:58;;;;;;;24.47;19.77;;;;;;;;;;742184;187;615252;-67
2022/06/08 13:06:24;;;;;;;23.80;19.63;;;;;;;;;;741797;186;923878;-68
2022/06/08 13:08:50;;;;;;;24.87;21.17;;;;;;;;;;743538;185;626396;-68
2022/06/08 13:11:16;;;;;;;24.30;19.12;;;;;;;;;;743815;185;915886;-66
2022/06/08 13:13:42;;;;;;;24.07;19.67;;;;;;;;;;742556;186;660923;-67
2022/06/08 13:16:11;;;;;;;24.10;18.43;;;;;;;;;;743625;186;648945;-70
2022/06/08 13:18:37;;;;;;;22.60;18.80;;;;;;;;;;746305;186;890557;-69
2022/06/08 13:21:06;;;;;;;23.57;17.87;;;;;;;;;;738097;186;916718;-66
2022/06/08 13:23:28;;;;;;;25.47;20.80;;;;;;;;;;741240;185;916316;-68
2022/06/08 13:25:54;;;;;;;24.57;19.30;;;;;;;;;;741243;188;912016;-67
2022/06/08 13:28:21;;;;;;;22.90;18.60;;;;;;;;;;747187;186;921450;-68
2022/06/08 13:30:46;;;;;;;29.10;18.10;;;;;;;;;;742029;186;621464;-67
2022/06/08 13:33:56;;;;;;;22.30;17.37;;;;;;;;;;738601;188;919348;-68
2022/06/08 13:35:38;;;;;;;24.93;19.50;;;;;;;;;;742750;188;618312;-69
2022/06/08 13:38:04;;;;;;;24.17;19.70;;;;;;;;;;740487;187;910631;-68
2022/06/08 13:40:30;;;;;;;26.37;20.17;;;;;;;;;;741194;188;633623;-68
2022/06/08 13:42:56;;;;;;;25.30;20.50;;;;;;;;;;744487;188;743561;-68
2022/06/08 13:45:22;;;;;;;28.23;20.33;;;;;;;;;;739723;186;901639;-68
2022/06/08 13:47:48;;;;;;;23.53;20.00;;;;;;;;;;745057;186;636060;-69
2022/06/08 13:50:18;;;;;;;22.80;17.10;;;;;;;;;;740419;188;919093;-67
2022/06/08 13:52:43;;;;;;;24.73;19.80;;;;;;;;;;745224;188;918534;-70
2022/06/08 13:55:12;;;;;;;25.57;20.57;;;;;;;;;;741806;188;621328;-69
2022/06/08 13:57:38;;;;;;;23.73;18.43;;;;;;;;;;743447;188;639447;-69
2022/06/08 14:00:05;;;;;;;23.80;18.10;;;;;;;;;;745675;186;620416;-69
2022/06/08 14:02:33;;;;;;;23.33;18.00;;;;;;;;;;737854;186;917878;-70
2022/06/08 14:04:59;;;;;;;22.77;18.50;;;;;;;;;;738459;189;918683;-70
2022/06/08 14:15:00;;;;;;;21.80;18.40;;;;;;;;;;743683;187;622239;-71
2022/06/08 14:17:26;;;;;;;18.13;16.20;;;;;;;;;;739211;185;915540;-70
2022/06/08 14:19:53;;;;;;;20.83;17.60;;;;;;;;;;743350;185;631910;-70
2022/06/08 14:22:18;;;;;;;24.63;19.30;;;;;;;;;;738699;186;916395;-70
2022/06/08 14:24:45;;;;;;;19.77;16.50;;;;;;;;;;739116;189;914471;-70
2022/06/08 14:27:10;;;;;;;20.03;15.90;;;;;;;;;;735864;186;917864;-70